Søk
Bilder fra klubbens virksomhet
Tooltip
Soloflygninger
Tooltip
Espen Wiik har fløyet solo
Tooltip
Rashad Habib har fløyet solo
Tooltip
David Froholt har fløyet solo
Tooltip
Leif Olsen er pilot
  • Tilfeldig bilde
     
    Opplastet 20-05-2008
    Opplastet 04-09-2011
    Opplastet 04-09-2011
     
  • Siste bilde
     
    Opplastet 27-07-2018
    Opplastet 05-06-2018
    Opplastet 31-10-2017
     
«StartForrige1234NesteSiste»
Side 1 av 4
 
 
METAR
2020/01/25 04:50 ENCN 250450Z 22007KT CAVOK 03/01 Q1011
TAF
2020/01/25 03:36 TAF TAF ENCN 250200Z 2503/2512 22008KT 9999 FEW040 BKN080
LN-KFK
Operativ VFR-natt
VFR dag
08:01 - 17:20
Brannvakt
Inaktiv
Banner
Banner
Banner
Banner
Banner